Time;durP1;ratioP1;P1;durP2;ratioP2;P2;SDS_P1;SDS_P2;PMS_P1;PMS_P2;Temp;Humidity;BMP_temperature;BMP_pressure;BME280_temperature;BME280_humidity;BME280_pressure;Samples;Min_cycle;Max_cycle;Signal;HPM_P1;HPM_P2
2022/09/20 00:01:32;;;;;;;16.00;14.23;;;21.10;99.90;;;;;;4995920;28;20181;-71
2022/09/20 00:04:03;;;;;;;16.58;14.52;;;21.10;99.90;;;;;;5012289;28;20583;-73
2022/09/20 00:06:31;;;;;;;18.30;14.27;;;21.00;99.90;;;;;;5012340;28;20665;-71
2022/09/20 00:09:00;;;;;;;15.63;14.03;;;21.00;99.90;;;;;;4995248;28;20279;-73
2022/09/20 00:11:30;;;;;;;15.63;13.98;;;21.00;99.90;;;;;;5008525;28;20192;-73
2022/09/20 00:14:00;;;;;;;16.67;13.83;;;21.00;99.90;;;;;;4994712;28;20223;-73
2022/09/20 00:16:30;;;;;;;17.77;13.63;;;21.00;99.90;;;;;;4994931;28;20193;-73
2022/09/20 00:19:01;;;;;;;17.77;13.73;;;21.00;99.90;;;;;;4978102;28;20227;-73
2022/09/20 00:21:30;;;;;;;18.23;14.10;;;21.10;99.90;;;;;;5013230;28;20185;-73
2022/09/20 00:23:57;;;;;;;16.70;13.90;;;21.10;99.90;;;;;;5008861;28;20654;-73
2022/09/20 00:26:28;;;;;;;15.63;13.97;;;21.10;99.90;;;;;;4995582;28;20181;-73
2022/09/20 00:28:56;;;;;;;19.50;13.50;;;21.10;99.90;;;;;;5012881;28;20185;-73
2022/09/20 00:31:22;;;;;;;15.38;12.60;;;21.20;99.90;;;;;;4995207;28;20228;-73
2022/09/20 00:36:38;;;;;;;17.13;13.53;;;21.20;99.90;;;;;;4995091;28;20185;-73
2022/09/20 00:39:04;;;;;;;17.43;12.93;;;21.20;99.90;;;;;;5003273;28;20221;-73
2022/09/20 00:41:32;;;;;;;16.80;12.83;;;21.20;99.90;;;;;;5002765;28;20193;-73
2022/09/20 00:44:00;;;;;;;15.20;12.50;;;21.20;99.90;;;;;;5022437;28;20213;-73
2022/09/20 00:46:42;;;;;;;13.70;11.53;;;21.20;99.90;;;;;;5002191;28;20172;-73
2022/09/20 00:49:21;;;;;;;14.97;12.07;;;21.10;99.90;;;;;;5009495;28;20193;-73
2022/09/20 00:52:01;;;;;;;14.27;11.37;;;21.10;99.90;;;;;;5012544;28;20658;-73
2022/09/20 00:54:30;;;;;;;13.53;12.13;;;21.10;99.90;;;;;;5009672;28;20215;-73
2022/09/20 00:56:57;;;;;;;16.37;11.20;;;21.10;99.90;;;;;;5002817;28;20185;-73
2022/09/20 00:59:33;;;;;;;17.63;11.67;;;21.00;99.90;;;;;;5010289;28;20193;-73
2022/09/20 01:02:17;;;;;;;14.50;11.53;;;21.00;99.90;;;;;;4980217;28;20307;-73
2022/09/20 01:04:45;;;;;;;15.67;11.50;;;21.00;99.90;;;;;;5001556;28;20207;-73
2022/09/20 01:07:17;;;;;;;16.23;11.80;;;20.90;99.90;;;;;;5024758;28;20295;-73
2022/09/20 01:09:45;;;;;;;13.77;11.50;;;20.90;99.90;;;;;;5003285;28;20722;-73
2022/09/20 01:12:21;;;;;;;14.47;10.97;;;20.80;99.90;;;;;;5005669;28;20196;-73
2022/09/20 01:14:50;;;;;;;17.23;11.43;;;20.80;99.90;;;;;;5005793;28;20706;-73
2022/09/20 01:17:20;;;;;;;16.97;11.73;;;20.80;99.90;;;;;;4973339;28;20247;-73
2022/09/20 01:20:15;;;;;;;15.83;11.43;;;20.80;99.90;;;;;;4988515;28;20855;-73
2022/09/20 01:23:00;;;;;;;13.63;11.30;;;20.70;99.90;;;;;;5005261;28;20188;-73
2022/09/20 01:26:16;;;;;;;18.73;11.07;;;20.70;99.90;;;;;;4997356;28;20639;-73
2022/09/20 01:28:51;;;;;;;14.87;11.27;;;20.70;99.90;;;;;;4994496;28;20197;-73
2022/09/20 01:31:29;;;;;;;12.47;10.57;;;20.60;99.90;;;;;;4989233;28;20741;-73
2022/09/20 01:34:35;;;;;;;13.60;10.43;;;20.60;99.90;;;;;;4999981;28;20727;-72
2022/09/20 01:37:27;;;;;;;12.40;10.13;;;20.60;99.90;;;;;;4996997;28;20524;-73
2022/09/20 01:40:38;;;;;;;11.50;10.30;;;20.50;99.90;;;;;;4995852;28;20188;-73
2022/09/20 01:43:55;;;;;;;13.33;9.37;;;20.50;99.90;;;;;;4991627;28;20283;-73
2022/09/20 01:46:32;;;;;;;15.97;10.03;;;20.50;99.90;;;;;;4982403;28;20181;-73
2022/09/20 01:49:43;;;;;;;13.43;10.30;;;20.50;99.90;;;;;;5001825;28;20279;-73
2022/09/20 01:52:35;;;;;;;10.77;9.20;;;20.40;99.90;;;;;;5008822;28;20271;-73
2022/09/20 01:55:43;;;;;;;15.43;9.60;;;20.40;99.90;;;;;;4993790;28;20193;-73
2022/09/20 01:58:18;;;;;;;12.47;8.83;;;20.30;99.90;;;;;;5008562;28;20208;-73
2022/09/20 02:01:10;;;;;;;11.27;8.17;;;20.30;99.90;;;;;;5002724;28;20196;-73
2022/09/20 02:04:07;;;;;;;14.10;8.00;;;20.30;99.90;;;;;;5009273;28;20588;-73
2022/09/20 02:07:10;;;;;;;9.40;7.70;;;20.30;99.90;;;;;;5001151;28;20188;-72
2022/09/20 02:10:02;;;;;;;14.23;8.67;;;20.30;99.90;;;;;;5010488;28;20374;-73
2022/09/20 02:13:10;;;;;;;14.77;7.87;;;20.30;99.90;;;;;;4986838;28;20190;-73
2022/09/20 02:16:20;;;;;;;11.70;7.60;;;20.30;99.90;;;;;;4993233;28;20192;-73
2022/09/20 02:19:22;;;;;;;11.13;7.07;;;20.30;99.90;;;;;;4999632;28;20712;-73
2022/09/20 02:22:10;;;;;;;12.97;6.87;;;20.30;99.90;;;;;;5010823;28;20654;-73
2022/09/20 02:25:03;;;;;;;10.17;5.53;;;20.30;99.90;;;;;;5008763;28;20895;-73
2022/09/20 02:28:10;;;;;;;13.30;5.90;;;20.30;99.90;;;;;;5004999;28;20196;-73
2022/09/20 02:31:15;;;;;;;9.57;6.13;;;20.30;99.90;;;;;;5021952;28;20299;-73
2022/09/20 02:34:07;;;;;;;12.63;6.23;;;20.30;99.90;;;;;;4987285;28;20204;-73
2022/09/20 02:37:10;;;;;;;7.43;5.03;;;20.30;99.90;;;;;;5007777;28;20211;-73
2022/09/20 02:39:51;;;;;;;10.10;5.70;;;20.30;99.90;;;;;;5017131;28;20193;-73
2022/09/20 02:42:34;;;;;;;12.23;5.50;;;20.30;99.90;;;;;;4990686;28;20262;-73
2022/09/20 02:45:27;;;;;;;11.17;5.50;;;20.30;99.90;;;;;;4992662;28;20192;-73
2022/09/20 02:48:03;;;;;;;12.07;5.63;;;20.30;99.90;;;;;;5008719;28;20195;-73
2022/09/20 02:50:49;;;;;;;10.10;5.60;;;20.30;99.90;;;;;;5004704;28;20184;-73
2022/09/20 02:53:46;;;;;;;10.07;5.90;;;20.30;99.90;;;;;;5000205;28;20616;-73
2022/09/20 02:56:37;;;;;;;11.47;5.80;;;20.30;99.90;;;;;;5018261;28;20188;-72
2022/09/20 02:59:33;;;;;;;10.17;5.67;;;20.40;99.90;;;;;;5010160;28;20282;-73
2022/09/20 03:02:50;;;;;;;13.63;6.43;;;20.40;99.90;;;;;;4984535;28;20196;-73
2022/09/20 03:05:24;;;;;;;14.33;6.57;;;20.40;99.90;;;;;;4972286;28;20196;-73
2022/09/20 03:08:13;;;;;;;10.73;6.30;;;20.40;99.90;;;;;;5008393;28;20623;-73
2022/09/20 03:10:58;;;;;;;7.27;6.33;;;20.40;99.90;;;;;;5006130;28;20283;-73
2022/09/20 03:13:33;;;;;;;12.00;6.73;;;20.40;99.90;;;;;;4991094;28;20212;-73
2022/09/20 03:16:16;;;;;;;11.13;6.97;;;20.40;99.90;;;;;;5009880;28;20207;-72
2022/09/20 03:19:23;;;;;;;10.90;6.87;;;20.40;99.90;;;;;;5021870;28;20216;-72
2022/09/20 03:22:20;;;;;;;9.10;7.20;;;20.40;99.90;;;;;;4980427;28;21415;-73
2022/09/20 03:25:41;;;;;;;12.20;7.43;;;20.40;99.90;;;;;;4991298;28;20211;-73
2022/09/20 03:28:49;;;;;;;11.03;7.63;;;20.40;99.90;;;;;;4976953;28;20199;-73
2022/09/20 03:31:56;;;;;;;13.10;8.43;;;20.30;99.90;;;;;;5011567;28;20181;-73
2022/09/20 03:34:56;;;;;;;13.80;9.40;;;20.30;99.90;;;;;;5011758;28;20715;-73
2022/09/20 03:38:07;;;;;;;11.83;9.23;;;20.30;99.90;;;;;;5009833;28;20244;-73
2022/09/20 03:41:38;;;;;;;16.13;9.70;;;20.30;99.90;;;;;;4990939;28;20276;-73
2022/09/20 03:44:21;;;;;;;11.50;9.37;;;20.30;99.90;;;;;;5010450;28;20208;-73
2022/09/20 03:47:06;;;;;;;14.80;9.80;;;20.30;99.90;;;;;;5007522;28;20228;-73
2022/09/20 03:49:57;;;;;;;13.80;9.87;;;20.20;99.90;;;;;;5009938;28;20184;-73
2022/09/20 03:52:51;;;;;;;15.83;10.13;;;20.20;99.90;;;;;;4987638;28;20192;-73
2022/09/20 03:55:48;;;;;;;14.40;10.40;;;20.20;99.90;;;;;;5008757;28;20205;-73
2022/09/20 03:58:35;;;;;;;13.57;10.57;;;20.30;99.90;;;;;;4993501;28;20218;-73
2022/09/20 04:01:56;;;;;;;12.40;10.27;;;20.30;99.90;;;;;;5008420;28;20196;-73
2022/09/20 04:04:43;;;;;;;14.17;9.97;;;20.30;99.90;;;;;;4985562;28;20227;-73
2022/09/20 04:07:46;;;;;;;12.27;10.33;;;20.30;99.90;;;;;;4977066;28;20285;-73
2022/09/20 04:11:01;;;;;;;13.10;10.00;;;20.30;99.90;;;;;;5004647;28;20197;-73
2022/09/20 04:13:59;;;;;;;17.33;9.03;;;20.40;99.90;;;;;;4992431;28;20196;-73
2022/09/20 04:16:50;;;;;;;11.90;9.90;;;20.30;99.90;;;;;;5007985;28;20200;-73
2022/09/20 04:19:47;;;;;;;14.23;9.20;;;20.30;99.90;;;;;;4992974;28;20243;-73
2022/09/20 04:22:15;;;;;;;14.00;9.00;;;20.30;99.90;;;;;;5005358;28;20664;-73
2022/09/20 04:24:58;;;;;;;14.97;8.73;;;20.30;99.90;;;;;;4999481;28;20573;-73
2022/09/20 04:27:58;;;;;;;11.20;7.20;;;20.30;99.90;;;;;;4993652;28;20181;-73
2022/09/20 04:30:29;;;;;;;14.67;7.20;;;20.30;99.90;;;;;;4998041;28;20990;-73
2022/09/20 04:33:25;;;;;;;10.00;6.83;;;20.40;99.90;;;;;;4985055;28;20184;-72
2022/09/20 04:36:44;;;;;;;11.77;7.37;;;20.40;99.90;;;;;;5010598;28;20290;-73
2022/09/20 04:39:51;;;;;;;8.83;7.33;;;20.40;99.90;;;;;;4995641;28;20231;-73
2022/09/20 04:43:04;;;;;;;9.13;7.23;;;20.40;99.90;;;;;;4999912;28;20725;-73
2022/09/20 04:46:10;;;;;;;12.00;8.00;;;20.50;99.90;;;;;;4995090;28;20625;-73
2022/09/20 04:49:10;;;;;;;14.00;8.30;;;20.50;99.90;;;;;;5002436;28;20288;-72
2022/09/20 04:52:02;;;;;;;11.53;8.03;;;20.50;99.90;;;;;;4967686;28;20251;-73
2022/09/20 04:55:19;;;;;;;11.63;7.77;;;20.60;99.90;;;;;;5006967;28;20193;-73
2022/09/20 04:58:24;;;;;;;13.43;7.73;;;20.60;99.90;;;;;;4988722;28;20820;-73
2022/09/20 05:01:16;;;;;;;12.37;7.30;;;20.70;99.90;;;;;;5007673;28;20591;-73
2022/09/20 05:04:43;;;;;;;15.23;6.90;;;20.70;99.90;;;;;;5004877;28;20613;-73
2022/09/20 05:07:27;;;;;;;13.90;6.43;;;20.80;99.90;;;;;;4988675;28;20197;-73
2022/09/20 05:10:17;;;;;;;12.60;5.87;;;20.90;99.90;;;;;;5026910;28;20185;-73
2022/09/20 05:13:11;;;;;;;9.23;6.17;;;21.00;99.90;;;;;;4998192;28;20260;-73
2022/09/20 05:16:15;;;;;;;12.67;6.17;;;21.20;99.90;;;;;;4997431;28;20196;-72
2022/09/20 05:19:32;;;;;;;11.13;5.80;;;21.30;99.90;;;;;;4990205;28;20209;-73
2022/09/20 05:22:45;;;;;;;11.57;5.93;;;21.40;99.90;;;;;;5006661;28;20717;-73
2022/09/20 05:26:02;;;;;;;10.87;5.83;;;21.50;99.90;;;;;;4991225;28;20625;-72
2022/09/20 05:29:18;;;;;;;10.40;5.00;;;21.60;99.90;;;;;;5017412;28;20709;-72
2022/09/20 05:32:22;;;;;;;8.80;4.93;;;21.70;99.90;;;;;;5009714;28;20262;-72
2022/09/20 05:35:35;;;;;;;10.87;5.20;;;21.70;99.90;;;;;;5009759;28;20321;-72
2022/09/20 05:38:15;;;;;;;10.65;4.72;;;21.70;99.90;;;;;;4987677;28;20213;-72
2022/09/20 05:40:59;;;;;;;10.43;4.85;;;21.70;99.90;;;;;;4974672;28;20192;-72
2022/09/20 05:43:34;;;;;;;14.03;4.20;;;21.80;99.90;;;;;;5015102;28;20185;-73
2022/09/20 05:46:41;;;;;;;11.77;4.07;;;21.80;99.90;;;;;;5004705;28;20242;-73
2022/09/20 05:49:13;;;;;;;9.02;3.63;;;22.00;99.90;;;;;;5013988;28;20284;-72
2022/09/20 05:52:03;;;;;;;7.97;3.50;;;22.10;99.90;;;;;;4987031;28;20192;-72
2022/09/20 05:55:04;;;;;;;7.77;3.80;;;22.20;99.90;;;;;;4995856;28;20192;-72
2022/09/20 05:58:09;;;;;;;9.88;3.70;;;22.10;99.90;;;;;;5009410;28;20216;-72
2022/09/20 06:01:02;;;;;;;9.27;3.95;;;22.30;99.90;;;;;;4995023;28;20232;-72
2022/09/20 06:04:07;;;;;;;10.40;3.63;;;22.30;99.90;;;;;;4992193;28;20712;-72
2022/09/20 06:06:57;;;;;;;11.55;3.97;;;22.30;99.90;;;;;;5009341;28;20192;-72
2022/09/20 06:09:50;;;;;;;14.73;4.23;;;22.30;99.90;;;;;;5009718;28;20275;-72
2022/09/20 06:12:42;;;;;;;9.40;3.53;;;22.30;99.90;;;;;;5006088;28;20192;-72
2022/09/20 06:15:43;;;;;;;11.32;3.90;;;22.30;99.90;;;;;;4990219;28;20193;-72
2022/09/20 06:18:27;;;;;;;10.18;3.58;;;22.30;99.90;;;;;;4977812;28;20231;-72
2022/09/20 06:21:20;;;;;;;7.93;3.35;;;22.30;99.90;;;;;;4988786;28;20288;-73
2022/09/20 06:23:46;;;;;;;6.20;3.00;;;22.30;99.90;;;;;;5001501;28;20196;-73
2022/09/20 06:26:29;;;;;;;5.72;2.95;;;22.50;99.90;;;;;;5007566;28;20196;-72
2022/09/20 06:29:04;;;;;;;8.52;3.03;;;22.60;99.90;;;;;;4999867;28;20720;-72
2022/09/20 06:31:30;;;;;;;12.00;3.30;;;22.70;99.90;;;;;;4978911;28;20325;-72
2022/09/20 06:34:07;;;;;;;11.93;3.20;;;22.80;99.90;;;;;;5009815;28;20188;-72
2022/09/20 06:42:37;;;;;;;6.80;2.88;;;22.80;99.90;;;;;;5000502;28;20189;-72
2022/09/20 06:45:04;;;;;;;7.43;2.50;;;22.80;99.90;;;;;;5009489;28;20280;-72
2022/09/20 06:47:31;;;;;;;7.20;2.70;;;23.10;99.90;;;;;;5001265;28;20530;-73
2022/09/20 06:49:58;;;;;;;7.07;2.53;;;23.10;99.90;;;;;;5009624;28;20291;-73
2022/09/20 06:52:25;;;;;;;7.47;2.90;;;23.20;99.90;;;;;;5005841;28;20284;-73
2022/09/20 06:54:55;;;;;;;8.85;2.95;;;23.10;99.90;;;;;;4999334;28;20193;-73
2022/09/20 06:57:34;;;;;;;12.50;2.95;;;23.00;99.90;;;;;;5016204;28;20550;-73
2022/09/20 07:00:01;;;;;;;6.25;2.20;;;23.00;99.90;;;;;;5008608;28;20187;-73
2022/09/20 07:02:27;;;;;;;5.38;2.20;;;23.10;99.90;;;;;;4997708;28;20197;-73
2022/09/20 07:04:54;;;;;;;7.00;2.13;;;23.10;99.90;;;;;;5013818;28;20729;-73
2022/09/20 07:07:20;;;;;;;4.95;2.22;;;23.20;99.90;;;;;;5010657;28;20184;-73
2022/09/20 07:09:46;;;;;;;6.45;2.10;;;23.20;99.90;;;;;;5018296;28;20211;-74
2022/09/20 07:12:13;;;;;;;6.45;2.30;;;23.30;99.90;;;;;;4985360;28;20193;-73
2022/09/20 07:14:39;;;;;;;5.28;2.10;;;23.60;99.90;;;;;;5004239;28;20252;-73
2022/09/20 07:17:06;;;;;;;5.85;2.00;;;23.80;99.90;;;;;;5004801;28;20214;-73
2022/09/20 07:19:33;;;;;;;8.73;2.70;;;23.90;99.90;;;;;;5002458;28;20891;-73
2022/09/20 07:21:59;;;;;;;7.53;2.50;;;23.90;99.90;;;;;;5021007;28;20235;-73
2022/09/20 07:24:25;;;;;;;5.68;2.17;;;24.00;99.90;;;;;;4969675;28;20197;-73
2022/09/20 07:27:01;;;;;;;4.63;2.08;;;23.90;99.90;;;;;;5016215;28;20839;-73
2022/09/20 07:29:30;;;;;;;9.93;2.60;;;23.80;99.90;;;;;;5021406;28;20854;-73
2022/09/20 07:31:57;;;;;;;4.75;2.30;;;23.70;99.90;;;;;;4985073;28;20212;-72
2022/09/20 07:34:24;;;;;;;7.90;2.45;;;23.80;99.90;;;;;;5008611;28;20192;-73
2022/09/20 07:36:51;;;;;;;6.70;2.67;;;24.00;99.90;;;;;;4977541;28;20193;-72
2022/09/20 07:39:18;;;;;;;6.85;2.22;;;24.20;99.90;;;;;;5020298;28;20958;-74
2022/09/20 07:41:47;;;;;;;8.50;2.75;;;24.40;99.90;;;;;;5009619;28;20196;-70
2022/09/20 07:44:23;;;;;;;8.38;2.63;;;24.40;99.90;;;;;;4987598;28;20185;-72
2022/09/20 07:46:56;;;;;;;13.75;3.00;;;24.60;99.90;;;;;;4992386;28;20192;-70
2022/09/20 07:49:30;;;;;;;6.03;2.60;;;24.50;99.90;;;;;;4977126;28;20197;-71
2022/09/20 07:51:57;;;;;;;7.57;2.40;;;24.50;99.90;;;;;;5001716;28;20283;-72
2022/09/20 07:54:25;;;;;;;5.82;2.65;;;24.50;99.90;;;;;;5012392;28;20220;-72
2022/09/20 07:56:52;;;;;;;7.15;2.25;;;24.50;99.90;;;;;;4991642;28;20235;-72
2022/09/20 07:59:18;;;;;;;5.90;2.20;;;24.50;99.90;;;;;;4988894;28;20223;-72
2022/09/20 08:01:45;;;;;;;8.27;2.55;;;24.50;99.90;;;;;;5001639;28;20193;-72
2022/09/20 08:04:13;;;;;;;10.00;2.92;;;24.70;99.90;;;;;;5014438;28;20184;-72
2022/09/20 08:06:43;;;;;;;7.78;2.47;;;24.70;99.90;;;;;;4999297;28;20216;-72
2022/09/20 08:09:11;;;;;;;4.93;2.35;;;24.80;99.90;;;;;;5000401;28;20770;-73
2022/09/20 08:11:40;;;;;;;6.00;2.25;;;24.90;99.90;;;;;;5004799;28;20197;-73
2022/09/20 08:14:13;;;;;;;10.20;2.90;;;25.00;99.90;;;;;;4978196;28;20225;-73
2022/09/20 08:16:45;;;;;;;4.60;2.20;;;25.00;99.90;;;;;;4984878;28;20186;-72
2022/09/20 08:19:21;;;;;;;5.88;2.30;;;25.10;99.90;;;;;;5006772;28;20849;-72
2022/09/20 08:21:52;;;;;;;9.15;2.63;;;25.10;99.90;;;;;;4994770;28;20288;-72
2022/09/20 08:24:18;;;;;;;6.53;2.70;;;25.10;99.90;;;;;;4991030;28;20198;-72
2022/09/20 08:26:45;;;;;;;8.43;2.90;;;25.10;99.90;;;;;;5009974;28;20189;-72
2022/09/20 08:29:12;;;;;;;14.13;2.88;;;25.20;99.90;;;;;;4994544;28;20200;-73
2022/09/20 08:31:41;;;;;;;10.10;2.92;;;25.30;99.90;;;;;;4979333;28;20185;-73
2022/09/20 08:34:10;;;;;;;5.50;2.58;;;25.30;99.90;;;;;;5003811;28;20290;-73
2022/09/20 08:36:44;;;;;;;15.45;3.00;;;25.40;99.90;;;;;;4984831;28;20220;-73
2022/09/20 08:39:14;;;;;;;7.25;2.70;;;25.50;99.90;;;;;;4994499;28;20208;-73
2022/09/20 08:41:56;;;;;;;6.50;2.30;;;25.60;99.90;;;;;;4981965;28;20184;-73
2022/09/20 08:44:27;;;;;;;6.47;2.60;;;25.60;99.90;;;;;;4997556;28;20185;-73
2022/09/20 08:47:18;;;;;;;9.23;2.72;;;25.70;99.90;;;;;;5011153;28;20193;-73
2022/09/20 08:49:44;;;;;;;8.50;2.67;;;25.80;99.90;;;;;;4991166;28;20185;-73
2022/09/20 08:52:39;;;;;;;8.23;2.42;;;25.80;99.90;;;;;;4995991;28;20185;-73
2022/09/20 08:55:33;;;;;;;8.43;2.65;;;26.00;99.90;;;;;;5014888;28;20258;-72
2022/09/20 08:58:00;;;;;;;5.80;2.40;;;26.10;99.90;;;;;;5000116;28;20287;-70
2022/09/20 09:00:32;;;;;;;6.68;2.60;;;26.20;99.90;;;;;;4994524;28;20177;-70
2022/09/20 09:03:11;;;;;;;10.32;2.63;;;26.30;99.90;;;;;;4995515;28;20202;-70
2022/09/20 09:05:53;;;;;;;7.00;2.75;;;26.30;99.90;;;;;;5006670;28;20200;-70
2022/09/20 09:08:39;;;;;;;10.00;3.05;;;26.40;99.90;;;;;;5000814;28;20184;-72
2022/09/20 09:11:17;;;;;;;11.57;2.90;;;26.60;99.90;;;;;;5011047;28;20193;-70
2022/09/20 09:14:47;;;;;;;11.25;3.30;;;26.80;99.90;;;;;;4988918;28;20594;-70
2022/09/20 09:16:56;;;;;;;9.98;3.25;;;26.90;99.90;;;;;;4995785;28;20223;-73
2022/09/20 09:19:42;;;;;;;13.13;3.35;;;27.10;99.90;;;;;;4992963;28;20224;-69
2022/09/20 09:22:09;;;;;;;9.25;3.13;;;27.30;99.90;;;;;;4992917;28;20181;-70
2022/09/20 09:24:35;;;;;;;10.82;3.05;;;27.30;99.90;;;;;;4981709;28;20246;-70
2022/09/20 09:27:08;;;;;;;12.05;3.10;;;27.40;99.90;;;;;;5013461;28;20181;-69
2022/09/20 09:29:35;;;;;;;11.30;2.83;;;27.60;99.90;;;;;;5021127;28;20246;-69
2022/09/20 09:32:26;;;;;;;11.13;3.42;;;27.70;99.90;;;;;;4981679;28;20197;-70
2022/09/20 09:34:56;;;;;;;9.02;3.05;;;27.70;99.90;;;;;;4997297;28;20201;-69
2022/09/20 09:37:31;;;;;;;8.65;2.95;;;27.50;99.90;;;;;;5009628;28;20196;-69
2022/09/20 09:40:17;;;;;;;7.40;3.60;;;27.30;99.90;;;;;;5004479;28;20193;-70
2022/09/20 09:43:00;;;;;;;9.38;2.90;;;27.30;99.90;;;;;;4998713;28;20216;-69
2022/09/20 09:45:39;;;;;;;10.63;2.95;;;27.50;99.90;;;;;;4999846;28;20644;-70
2022/09/20 09:48:29;;;;;;;7.88;2.80;;;27.40;99.90;;;;;;5019566;28;20635;-70
2022/09/20 09:51:19;;;;;;;12.98;3.35;;;27.20;99.90;;;;;;4991411;28;20182;-70
2022/09/20 09:53:50;;;;;;;15.82;3.65;;;27.20;99.90;;;;;;4971663;28;20582;-70
2022/09/20 09:56:48;;;;;;;10.80;3.13;;;28.10;99.90;;;;;;4992547;28;20193;-69
2022/09/20 09:59:46;;;;;;;8.65;2.97;;;28.40;99.90;;;;;;4985200;28;20307;-70
2022/09/20 10:02:37;;;;;;;16.52;3.15;;;28.40;99.90;;;;;;5006936;28;20539;-70
2022/09/20 10:05:38;;;;;;;9.88;3.20;;;28.60;99.90;;;;;;4988344;28;20196;-70
2022/09/20 10:08:22;;;;;;;10.27;3.17;;;29.00;99.90;;;;;;5007792;28;20193;-70
2022/09/20 10:11:24;;;;;;;8.70;3.10;;;29.20;99.90;;;;;;4998206;28;20210;-70
2022/09/20 10:14:28;;;;;;;11.73;3.25;;;29.40;99.90;;;;;;4975920;28;20274;-70
2022/09/20 10:17:25;;;;;;;10.73;2.78;;;30.60;99.90;;;;;;5002786;28;20191;-70
2022/09/20 10:20:18;;;;;;;9.60;3.03;;;29.40;99.90;;;;;;4968830;28;20200;-70
2022/09/20 10:23:00;;;;;;;10.27;3.10;;;28.50;99.90;;;;;;4992413;28;20228;-70
2022/09/20 10:26:05;;;;;;;12.43;3.47;;;28.10;99.90;;;;;;4999058;28;20234;-70
2022/09/20 10:29:07;;;;;;;13.13;4.13;;;27.80;99.90;;;;;;5015068;28;20197;-70
2022/09/20 10:32:09;;;;;;;10.32;2.97;;;27.50;99.90;;;;;;4967671;28;20251;-70
2022/09/20 10:34:49;;;;;;;11.57;3.00;;;27.30;99.90;;;;;;4985977;28;20184;-70
2022/09/20 10:38:14;;;;;;;10.00;3.53;;;27.30;99.90;;;;;;4989969;28;20203;-70
2022/09/20 10:44:09;;;;;;;14.50;3.30;;;27.20;99.90;;;;;;4990404;28;20180;-69
2022/09/20 10:47:07;;;;;;;9.25;2.83;;;27.00;99.90;;;;;;4989323;28;20208;-70
2022/09/20 10:50:03;;;;;;;10.45;3.30;;;27.00;99.90;;;;;;4993565;28;20192;-71
2022/09/20 10:52:48;;;;;;;8.35;2.90;;;26.90;99.90;;;;;;5004478;28;20181;-71
2022/09/20 10:55:46;;;;;;;9.48;3.10;;;27.00;99.90;;;;;;4984933;28;20258;-71
2022/09/20 10:58:54;;;;;;;7.85;2.42;;;27.30;99.90;;;;;;4991772;28;20217;-71
2022/09/20 11:02:08;;;;;;;14.82;3.20;;;27.40;99.90;;;;;;4989764;28;20192;-72
2022/09/20 11:05:19;;;;;;;10.40;3.35;;;27.30;99.90;;;;;;4945476;28;20566;-71
2022/09/20 11:08:05;;;;;;;8.98;2.78;;;27.20;99.90;;;;;;4940221;28;20186;-71
2022/09/20 11:10:47;;;;;;;9.07;2.85;;;27.10;99.90;;;;;;4990777;28;20622;-71
2022/09/20 11:13:33;;;;;;;9.43;2.70;;;27.20;99.90;;;;;;4991420;28;20192;-71
2022/09/20 11:16:23;;;;;;;12.63;2.97;;;27.50;99.90;;;;;;4992763;28;20187;-71
2022/09/20 11:19:27;;;;;;;9.93;3.13;;;27.80;99.90;;;;;;5010031;28;21004;-71
2022/09/20 11:22:42;;;;;;;8.82;3.35;;;27.90;99.90;;;;;;4990639;28;20188;-71
2022/09/20 11:25:18;;;;;;;13.55;3.20;;;27.90;99.90;;;;;;4988348;28;20188;-71
2022/09/20 11:27:57;;;;;;;8.82;3.13;;;28.00;99.90;;;;;;4990058;28;20186;-71
2022/09/20 11:30:28;;;;;;;11.50;3.30;;;28.10;99.90;;;;;;4971603;28;20192;-71
2022/09/20 11:33:23;;;;;;;9.48;2.65;;;28.20;99.90;;;;;;4990423;28;20186;-71
2022/09/20 11:36:00;;;;;;;13.65;4.20;;;28.20;99.90;;;;;;4994126;28;20200;-71
2022/09/20 11:39:17;;;;;;;9.80;3.03;;;28.30;99.90;;;;;;4996525;28;20791;-71
2022/09/20 11:41:45;;;;;;;8.75;2.50;;;28.20;99.90;;;;;;4983032;28;20721;-71
2022/09/20 11:44:18;;;;;;;13.75;3.33;;;28.30;99.90;;;;;;4996018;28;20220;-70
2022/09/20 11:47:16;;;;;;;19.92;2.88;;;28.30;99.90;;;;;;5012541;28;20180;-71
2022/09/20 11:50:01;;;;;;;11.73;2.72;;;28.10;99.90;;;;;;4996180;28;20196;-71
2022/09/20 11:52:39;;;;;;;13.35;2.58;;;27.80;99.90;;;;;;4979578;28;20284;-71
2022/09/20 11:55:43;;;;;;;9.68;2.83;;;27.60;99.90;;;;;;4993385;28;20204;-71
2022/09/20 11:58:16;;;;;;;7.43;2.40;;;27.40;99.90;;;;;;5008664;28;20212;-71
2022/09/20 12:00:49;;;;;;;12.95;2.88;;;27.30;99.90;;;;;;4999040;28;20683;-70
2022/09/20 12:03:37;;;;;;;8.07;2.90;;;27.30;99.90;;;;;;5011057;28;20188;-71
2022/09/20 12:06:32;;;;;;;11.75;3.45;;;27.20;99.90;;;;;;4977530;28;20272;-71
2022/09/20 12:09:42;;;;;;;11.15;3.20;;;27.10;99.90;;;;;;4995803;28;20183;-71
2022/09/20 12:12:45;;;;;;;9.90;2.78;;;27.00;99.90;;;;;;4916449;29;20335;-71
2022/09/20 12:15:39;;;;;;;9.75;2.63;;;27.10;99.90;;;;;;4916974;29;20203;-71
2022/09/20 12:18:26;;;;;;;6.97;2.50;;;27.10;99.90;;;;;;4994129;28;20251;-70
2022/09/20 12:20:57;;;;;;;8.50;2.70;;;27.20;99.90;;;;;;4995702;28;20576;-71
2022/09/20 12:23:39;;;;;;;9.57;2.65;;;27.30;99.90;;;;;;4994268;28;20189;-71
2022/09/20 12:26:21;;;;;;;9.48;2.78;;;27.50;99.90;;;;;;5008874;28;20199;-71
2022/09/20 12:29:22;;;;;;;12.10;3.20;;;27.50;99.90;;;;;;5008501;28;20696;-71
2022/09/20 12:31:54;;;;;;;9.35;2.70;;;27.40;99.90;;;;;;4962793;28;20192;-71
2022/09/20 12:34:21;;;;;;;9.18;2.72;;;27.50;99.90;;;;;;5007906;28;20189;-71
2022/09/20 12:36:54;;;;;;;11.60;2.70;;;27.40;99.90;;;;;;5012884;28;20193;-71
2022/09/20 12:39:27;;;;;;;7.40;2.95;;;27.30;99.90;;;;;;4995188;28;20247;-70
2022/09/20 12:42:09;;;;;;;5.70;2.30;;;27.30;99.90;;;;;;4994373;28;20639;-71
2022/09/20 12:44:49;;;;;;;13.75;2.72;;;27.40;99.90;;;;;;5008676;28;20188;-71
2022/09/20 12:47:22;;;;;;;8.85;2.70;;;27.50;99.90;;;;;;4977750;28;20243;-71
2022/09/20 12:52:49;;;;;;;9.23;2.88;;;27.30;99.90;;;;;;5011739;28;20185;-71
2022/09/20 12:55:45;;;;;;;6.95;2.45;;;27.30;99.90;;;;;;5011395;28;20646;-73
2022/09/20 12:58:14;;;;;;;9.45;2.75;;;27.40;99.90;;;;;;4990509;28;20208;-71
2022/09/20 13:00:50;;;;;;;11.75;3.08;;;27.30;99.90;;;;;;5008347;28;20189;-71
2022/09/20 13:03:27;;;;;;;10.13;2.33;;;27.20;99.90;;;;;;4991859;28;20620;-71
2022/09/20 13:06:13;;;;;;;14.85;3.05;;;27.30;99.90;;;;;;4992842;28;20205;-71
2022/09/20 13:09:01;;;;;;;10.20;2.70;;;27.30;99.90;;;;;;4989669;28;20184;-71
2022/09/20 13:11:54;;;;;;;5.75;2.47;;;27.20;99.90;;;;;;5010059;28;20275;-72
2022/09/20 13:14:31;;;;;;;9.20;2.80;;;27.20;99.90;;;;;;5010623;28;20216;-73
2022/09/20 13:17:13;;;;;;;11.20;2.78;;;27.20;99.90;;;;;;4994832;28;20177;-73
2022/09/20 13:19:48;;;;;;;8.57;2.53;;;27.20;99.90;;;;;;4994374;28;20215;-73
2022/09/20 13:22:40;;;;;;;10.65;2.83;;;27.20;99.90;;;;;;5012042;28;20216;-73
2022/09/20 13:25:19;;;;;;;9.90;3.15;;;27.30;99.90;;;;;;5007828;28;20228;-73
2022/09/20 13:28:34;;;;;;;10.00;2.65;;;27.10;99.90;;;;;;4989466;28;20279;-73
2022/09/20 13:31:22;;;;;;;13.43;2.80;;;27.20;99.90;;;;;;4965566;28;20196;-73
2022/09/20 13:33:49;;;;;;;10.15;2.70;;;27.10;99.90;;;;;;5008258;28;20228;-72
2022/09/20 13:36:29;;;;;;;11.10;2.80;;;27.10;99.90;;;;;;5006278;28;20225;-73
2022/09/20 13:38:57;;;;;;;9.15;2.92;;;27.10;99.90;;;;;;4993449;28;20208;-71
2022/09/20 13:41:31;;;;;;;8.18;2.53;;;27.10;99.90;;;;;;5010503;28;20843;-73
2022/09/20 13:43:59;;;;;;;7.97;2.70;;;27.00;99.90;;;;;;5009235;28;20200;-73
2022/09/20 13:46:32;;;;;;;14.45;3.13;;;27.00;99.90;;;;;;5009697;28;20224;-73
2022/09/20 13:49:23;;;;;;;8.73;2.20;;;27.00;99.90;;;;;;5004187;28;20219;-72
2022/09/20 13:51:51;;;;;;;8.40;2.67;;;26.90;99.90;;;;;;4991994;28;20539;-73
2022/09/20 13:54:32;;;;;;;6.43;2.33;;;26.80;99.90;;;;;;5009735;28;20188;-73
2022/09/20 13:57:12;;;;;;;6.72;2.58;;;26.80;99.90;;;;;;4976429;28;20224;-73
2022/09/20 13:59:46;;;;;;;11.32;3.20;;;26.90;99.90;;;;;;5005572;28;20255;-73
2022/09/20 14:02:30;;;;;;;8.57;2.63;;;26.80;99.90;;;;;;4982609;28;20225;-73
2022/09/20 14:05:06;;;;;;;9.88;3.03;;;26.90;99.90;;;;;;4993753;28;20820;-72
2022/09/20 14:07:35;;;;;;;10.55;2.90;;;26.80;99.90;;;;;;5011545;28;20185;-73
2022/09/20 14:10:03;;;;;;;10.18;2.92;;;26.80;99.90;;;;;;5003745;28;20182;-73
2022/09/20 14:12:29;;;;;;;8.45;2.55;;;26.80;99.90;;;;;;4995507;28;20319;-73
2022/09/20 14:14:58;;;;;;;10.63;2.65;;;26.80;99.90;;;;;;4974315;28;20492;-73
2022/09/20 14:17:34;;;;;;;8.23;2.80;;;26.80;99.90;;;;;;4976282;28;20181;-73
2022/09/20 14:20:01;;;;;;;9.00;2.28;;;26.70;99.90;;;;;;5008734;28;20177;-73
2022/09/20 14:22:29;;;;;;;10.30;2.70;;;26.70;99.90;;;;;;5000180;28;20189;-73
2022/09/20 14:25:12;;;;;;;11.70;2.88;;;26.60;99.90;;;;;;5010795;28;20185;-73